createdAt,value
2018-07-19T00:03:37.247Z,17.00
2018-07-19T00:06:05.594Z,17.10
2018-07-19T00:11:01.521Z,16.90
2018-07-19T00:13:29.557Z,17.00
2018-07-19T00:15:58.472Z,17.00
2018-07-19T00:18:26.837Z,16.90
2018-07-19T00:20:56.282Z,16.80
2018-07-19T00:23:24.825Z,16.70
2018-07-19T00:25:53.281Z,16.70
2018-07-19T00:28:21.351Z,16.70
2018-07-19T00:30:49.397Z,16.50
2018-07-19T00:33:17.441Z,16.70
2018-07-19T00:35:45.480Z,16.70
2018-07-19T00:38:13.521Z,16.70
2018-07-19T00:40:41.549Z,16.60
2018-07-19T00:43:09.762Z,16.60
2018-07-19T00:45:37.808Z,16.60
2018-07-19T00:48:05.844Z,16.40
2018-07-19T00:50:34.018Z,16.30
2018-07-19T00:53:02.304Z,16.40
2018-07-19T00:55:30.337Z,16.30
2018-07-19T01:00:26.342Z,16.20
2018-07-19T01:02:54.380Z,16.20
2018-07-19T01:05:22.414Z,16.20
2018-07-19T01:07:50.447Z,16.10
2018-07-19T01:10:18.497Z,16.10
2018-07-19T01:12:46.537Z,16.20
2018-07-19T01:15:14.559Z,16.20
2018-07-19T01:17:43.264Z,16.10
2018-07-19T01:20:11.297Z,16.10
2018-07-19T01:22:39.347Z,15.90
2018-07-19T01:25:07.562Z,15.90
2018-07-19T01:27:35.661Z,15.90
2018-07-19T01:34:59.618Z,15.90
2018-07-19T01:37:27.648Z,15.70
2018-07-19T01:42:35.889Z,15.70
2018-07-19T01:47:32.718Z,15.40
2018-07-19T01:50:00.769Z,15.40
2018-07-19T01:54:56.787Z,15.50
2018-07-19T01:57:24.845Z,15.50
2018-07-19T02:02:20.958Z,15.50
2018-07-19T02:04:49.006Z,15.40
2018-07-19T02:07:17.097Z,15.30
2018-07-19T02:09:45.469Z,15.40
2018-07-19T02:12:13.533Z,15.40
2018-07-19T02:14:41.587Z,15.50
2018-07-19T02:17:09.624Z,15.50
2018-07-19T02:19:37.665Z,15.50
2018-07-19T02:22:05.826Z,15.60
2018-07-19T02:24:34.317Z,15.70
2018-07-19T02:27:02.367Z,15.70
2018-07-19T02:29:30.417Z,15.70
2018-07-19T02:31:58.505Z,15.60
2018-07-19T02:34:26.563Z,15.50
2018-07-19T02:36:55.064Z,15.50
2018-07-19T02:39:23.104Z,15.40
2018-07-19T02:41:51.146Z,15.40
2018-07-19T02:44:19.189Z,15.40
2018-07-19T02:46:47.252Z,15.50
2018-07-19T02:49:15.312Z,15.50
2018-07-19T02:51:43.809Z,15.50
2018-07-19T02:54:12.196Z,15.60
2018-07-19T02:56:40.241Z,15.60
2018-07-19T02:59:08.432Z,15.40
2018-07-19T03:01:36.501Z,15.40
2018-07-19T03:04:04.853Z,15.30
2018-07-19T03:09:01.266Z,15.30
2018-07-19T03:11:29.305Z,15.30
2018-07-19T03:13:57.365Z,15.30
2018-07-19T03:16:25.425Z,13.80
2018-07-19T03:18:53.480Z,15.30
2018-07-19T03:21:21.541Z,15.20
2018-07-19T03:23:49.610Z,15.00
2018-07-19T03:26:17.682Z,15.00
2018-07-19T03:28:45.726Z,15.00
2018-07-19T03:31:13.806Z,15.20
2018-07-19T03:33:41.873Z,15.20
2018-07-19T03:36:09.928Z,15.20
2018-07-19T03:38:37.981Z,15.20
2018-07-19T03:41:06.441Z,15.30
2018-07-19T03:43:34.481Z,15.30
2018-07-19T03:46:02.568Z,15.20
2018-07-19T03:48:30.822Z,15.20
2018-07-19T03:50:58.873Z,15.20
2018-07-19T03:53:27.313Z,15.20
2018-07-19T03:55:55.381Z,15.20
2018-07-19T03:58:23.442Z,15.20
2018-07-19T04:00:51.501Z,15.30
2018-07-19T04:03:19.565Z,15.50
2018-07-19T04:05:47.621Z,15.50
2018-07-19T04:08:15.669Z,15.40
2018-07-19T04:10:43.725Z,15.40
2018-07-19T04:13:11.785Z,15.50
2018-07-19T04:15:39.899Z,15.50
2018-07-19T04:18:07.944Z,15.70
2018-07-19T04:20:35.994Z,15.60
2018-07-19T04:23:04.121Z,15.60
2018-07-19T04:25:32.177Z,15.50
2018-07-19T04:28:00.237Z,15.50
2018-07-19T04:30:28.278Z,15.50
2018-07-19T04:32:56.329Z,15.60
2018-07-19T04:35:24.419Z,15.60
2018-07-19T04:40:20.368Z,15.60
2018-07-19T04:42:48.426Z,15.40
2018-07-19T04:45:16.562Z,15.50
2018-07-19T04:47:44.606Z,15.50
2018-07-19T04:50:12.666Z,15.60
2018-07-19T04:52:40.713Z,15.60
2018-07-19T04:57:36.636Z,15.40
2018-07-19T05:00:05.178Z,15.50
2018-07-19T05:02:33.275Z,15.60
2018-07-19T05:05:01.328Z,15.50
2018-07-19T05:07:29.418Z,15.60
2018-07-19T05:12:25.317Z,15.60
2018-07-19T05:17:21.225Z,15.80
2018-07-19T05:19:49.285Z,15.60
2018-07-19T05:22:17.437Z,15.80
2018-07-19T05:24:45.488Z,15.80
2018-07-19T05:27:13.533Z,15.80
2018-07-19T05:29:41.618Z,15.80
2018-07-19T05:34:37.800Z,15.70
2018-07-19T05:37:05.797Z,15.60
2018-07-19T05:39:33.849Z,15.60
2018-07-19T05:42:01.971Z,15.70
2018-07-19T05:44:29.957Z,15.80
2018-07-19T05:46:58.040Z,15.70
2018-07-19T05:54:21.922Z,16.00
2018-07-19T05:56:50.024Z,16.00
2018-07-19T05:59:18.086Z,16.00
2018-07-19T06:01:46.146Z,16.00
2018-07-19T06:04:14.188Z,15.80
2018-07-19T06:06:42.309Z,16.00
2018-07-19T06:09:11.469Z,16.10
2018-07-19T06:11:39.821Z,16.20
2018-07-19T06:14:07.883Z,16.40
2018-07-19T06:16:35.933Z,16.60
2018-07-19T06:19:04.202Z,16.60
2018-07-19T06:21:32.279Z,16.70
2018-07-19T06:24:00.372Z,16.80
2018-07-19T06:26:29.401Z,16.90
2018-07-19T06:28:57.452Z,17.10
2018-07-19T06:31:25.518Z,17.10
2018-07-19T06:33:54.560Z,17.40
2018-07-19T06:36:22.622Z,17.40
2018-07-19T06:38:50.682Z,17.60
2018-07-19T06:41:18.747Z,17.50
2018-07-19T06:43:46.844Z,17.50
2018-07-19T06:46:14.901Z,17.40
2018-07-19T06:48:43.158Z,17.40
2018-07-19T06:51:11.209Z,17.50
2018-07-19T06:53:39.343Z,17.80
2018-07-19T06:56:07.402Z,17.80
2018-07-19T06:58:35.461Z,18.00
2018-07-19T07:01:03.534Z,18.00
2018-07-19T07:03:31.636Z,18.10
2018-07-19T07:05:59.647Z,18.10
2018-07-19T07:08:27.701Z,18.30
2018-07-19T07:10:55.810Z,18.40
2018-07-19T07:13:23.869Z,18.40
2018-07-19T07:15:51.965Z,18.40
2018-07-19T07:18:20.143Z,18.40
2018-07-19T07:20:49.072Z,18.40
2018-07-19T07:23:17.113Z,18.50
2018-07-19T07:25:48.016Z,18.70
2018-07-19T07:28:16.359Z,18.80
2018-07-19T07:30:44.409Z,18.90
2018-07-19T07:33:13.176Z,19.00
2018-07-19T07:35:41.222Z,19.30
2018-07-19T07:38:09.277Z,19.30
2018-07-19T07:40:37.322Z,19.40
2018-07-19T07:43:06.181Z,19.40
2018-07-19T07:45:34.382Z,19.40
2018-07-19T07:48:02.490Z,19.40
2018-07-19T07:52:58.650Z,19.60
2018-07-19T07:55:26.705Z,19.60
2018-07-19T08:00:22.804Z,19.80
2018-07-19T08:02:51.041Z,19.80
2018-07-19T08:05:19.105Z,19.80
2018-07-19T08:07:47.441Z,19.90
2018-07-19T08:10:15.848Z,20.10
2018-07-19T08:12:43.929Z,20.10
2018-07-19T08:17:39.861Z,20.30
2018-07-19T08:20:07.945Z,20.30
2018-07-19T08:22:36.006Z,20.40
2018-07-19T08:25:04.386Z,20.30
2018-07-19T08:27:32.441Z,20.40
2018-07-19T08:30:00.547Z,20.40
2018-07-19T08:32:28.640Z,20.30
2018-07-19T08:34:57.019Z,20.40
2018-07-19T08:39:53.909Z,20.40
2018-07-19T08:42:21.969Z,20.60
2018-07-19T08:44:50.026Z,20.60
2018-07-19T08:47:18.093Z,20.60
2018-07-19T08:49:47.293Z,20.60
2018-07-19T08:52:15.881Z,20.70
2018-07-19T08:54:44.709Z,20.80
2018-07-19T08:59:40.923Z,21.10
2018-07-19T09:02:08.985Z,21.40
2018-07-19T09:04:38.046Z,21.40
2018-07-19T09:07:06.103Z,21.50
2018-07-19T09:09:34.218Z,21.50
2018-07-19T09:12:02.277Z,21.50
2018-07-19T09:14:30.322Z,21.40
2018-07-19T09:16:58.400Z,21.20
2018-07-19T09:19:26.485Z,20.80
2018-07-19T09:21:54.505Z,20.80
2018-07-19T09:24:22.553Z,20.90
2018-07-19T09:26:50.617Z,21.10
2018-07-19T09:29:18.702Z,21.30
2018-07-19T09:31:46.752Z,21.30
2018-07-19T09:34:14.833Z,21.40
2018-07-19T09:36:43.077Z,21.50
2018-07-19T09:39:12.415Z,21.70
2018-07-19T09:41:41.253Z,21.70
2018-07-19T09:44:09.485Z,21.70
2018-07-19T09:46:37.733Z,21.90
2018-07-19T09:49:05.929Z,22.20
2018-07-19T09:51:34.246Z,21.60
2018-07-19T09:54:02.626Z,21.60
2018-07-19T09:56:31.061Z,21.90
2018-07-19T09:58:59.136Z,21.90
2018-07-19T10:01:27.200Z,22.00
2018-07-19T10:03:55.265Z,21.90
2018-07-19T10:06:23.318Z,22.00
2018-07-19T10:08:51.386Z,22.20
2018-07-19T10:11:19.461Z,22.20
2018-07-19T10:13:47.881Z,22.20
2018-07-19T10:16:16.125Z,22.40
2018-07-19T10:18:44.312Z,22.40
2018-07-19T10:21:12.362Z,22.00
2018-07-19T10:23:40.429Z,22.00
2018-07-19T10:26:08.559Z,22.10
2018-07-19T10:28:36.644Z,22.10
2018-07-19T10:31:04.894Z,22.10
2018-07-19T10:33:33.536Z,22.10
2018-07-19T10:36:01.668Z,22.30
2018-07-19T10:38:30.745Z,22.50
2018-07-19T10:43:26.670Z,22.40
2018-07-19T10:45:55.303Z,22.30
2018-07-19T10:48:23.558Z,22.20
2018-07-19T10:50:51.622Z,22.10
2018-07-19T10:53:19.778Z,22.10
2018-07-19T10:55:47.848Z,22.20
2018-07-19T10:58:15.919Z,22.10
2018-07-19T11:00:43.961Z,22.20
2018-07-19T11:03:12.051Z,22.20
2018-07-19T11:05:40.117Z,22.10
2018-07-19T11:08:08.178Z,22.10
2018-07-19T11:10:36.226Z,22.40
2018-07-19T11:13:04.279Z,22.60
2018-07-19T11:15:32.355Z,22.80
2018-07-19T11:18:00.394Z,22.90
2018-07-19T11:20:28.457Z,22.70
2018-07-19T11:22:56.538Z,22.50
2018-07-19T11:25:24.631Z,22.50
2018-07-19T11:27:52.666Z,22.60
2018-07-19T11:30:20.723Z,22.80
2018-07-19T11:32:48.785Z,22.90
2018-07-19T11:35:16.910Z,23.10
2018-07-19T11:37:44.931Z,22.80
2018-07-19T11:40:12.989Z,22.70
2018-07-19T11:42:41.094Z,22.80
2018-07-19T11:45:09.102Z,22.80
2018-07-19T11:47:37.146Z,22.90
2018-07-19T11:50:05.698Z,23.00
2018-07-19T11:52:33.750Z,23.00
2018-07-19T11:55:01.847Z,22.90
2018-07-19T11:57:29.908Z,23.00
2018-07-19T11:59:57.956Z,23.30
2018-07-19T12:02:26.018Z,23.30
2018-07-19T12:04:54.076Z,22.90
2018-07-19T12:07:22.116Z,23.10
2018-07-19T12:09:50.218Z,23.20
2018-07-19T12:12:18.256Z,23.30
2018-07-19T12:14:46.326Z,23.10
2018-07-19T12:17:14.417Z,23.10
2018-07-19T12:19:42.479Z,23.10
2018-07-19T12:22:10.528Z,23.10
2018-07-19T12:24:38.585Z,22.90
2018-07-19T12:27:06.642Z,23.00
2018-07-19T12:29:34.689Z,23.20
2018-07-19T12:32:02.774Z,23.10
2018-07-19T12:34:30.967Z,23.10
2018-07-19T12:36:59.076Z,22.80
2018-07-19T12:39:27.103Z,22.80
2018-07-19T12:41:55.146Z,22.90
2018-07-19T12:44:23.199Z,22.90
2018-07-19T12:46:51.245Z,23.10
2018-07-19T12:49:19.307Z,23.30
2018-07-19T12:51:47.341Z,23.30
2018-07-19T12:54:15.403Z,23.50
2018-07-19T12:56:43.604Z,23.40
2018-07-19T12:59:11.670Z,23.20
2018-07-19T13:01:39.742Z,23.20
2018-07-19T13:04:07.802Z,23.40
2018-07-19T13:06:35.879Z,23.50
2018-07-19T13:09:05.936Z,23.70
2018-07-19T13:11:34.038Z,23.70
2018-07-19T13:14:02.086Z,23.70
2018-07-19T13:16:30.254Z,24.00
2018-07-19T13:18:58.286Z,24.10
2018-07-19T13:21:26.343Z,24.20
2018-07-19T13:23:54.395Z,24.30
2018-07-19T13:26:22.448Z,23.90
2018-07-19T13:28:50.513Z,23.60
2018-07-19T13:31:18.614Z,23.90
2018-07-19T13:33:46.677Z,23.90
2018-07-19T13:36:14.773Z,23.90
2018-07-19T13:38:42.854Z,24.10
2018-07-19T13:41:10.921Z,24.30
2018-07-19T13:43:38.984Z,24.20
2018-07-19T13:46:07.063Z,23.90
2018-07-19T13:48:35.110Z,24.10
2018-07-19T13:51:03.173Z,24.10
2018-07-19T13:53:42.724Z,24.30
2018-07-19T13:56:10.842Z,24.40
2018-07-19T13:58:39.292Z,24.60
2018-07-19T14:01:07.358Z,25.00
2018-07-19T14:03:35.589Z,24.60
2018-07-19T14:06:03.783Z,24.60
2018-07-19T14:08:32.516Z,24.70
2018-07-19T14:11:00.570Z,25.10
2018-07-19T14:13:28.621Z,25.30
2018-07-19T14:15:56.689Z,25.20
2018-07-19T14:18:24.763Z,25.30
2018-07-19T14:20:52.822Z,25.10
2018-07-19T14:23:20.898Z,25.40
2018-07-19T14:25:48.968Z,25.30
2018-07-19T14:28:17.045Z,25.30
2018-07-19T14:30:45.306Z,25.30
2018-07-19T14:33:13.369Z,25.00
2018-07-19T14:35:41.420Z,24.70
2018-07-19T14:38:09.478Z,24.60
2018-07-19T14:40:37.601Z,24.90
2018-07-19T14:43:05.683Z,25.10
2018-07-19T14:45:33.746Z,25.30
2018-07-19T14:48:01.840Z,25.50
2018-07-19T14:50:29.865Z,25.10
2018-07-19T14:52:57.925Z,25.30
2018-07-19T14:55:25.977Z,25.30
2018-07-19T14:57:54.657Z,25.20
2018-07-19T15:00:22.707Z,25.00
2018-07-19T15:02:50.778Z,24.90
2018-07-19T15:05:18.881Z,25.10
2018-07-19T15:07:46.943Z,25.50
2018-07-19T15:10:14.991Z,25.20
2018-07-19T15:12:43.049Z,25.00
2018-07-19T15:15:11.089Z,25.00
2018-07-19T15:17:39.137Z,25.10
2018-07-19T15:20:07.208Z,25.30
2018-07-19T15:22:35.258Z,25.30
2018-07-19T15:25:03.325Z,25.70
2018-07-19T15:27:31.386Z,26.10
2018-07-19T15:29:59.429Z,26.20
2018-07-19T15:32:27.492Z,26.30
2018-07-19T15:34:55.594Z,25.70
2018-07-19T15:37:23.648Z,25.50
2018-07-19T15:39:51.711Z,25.60
2018-07-19T15:42:19.736Z,25.60
2018-07-19T15:44:47.786Z,25.70
2018-07-19T15:47:15.847Z,25.90
2018-07-19T15:49:43.900Z,26.20
2018-07-19T15:52:11.952Z,26.20
2018-07-19T15:54:39.987Z,25.60
2018-07-19T15:57:08.445Z,25.60
2018-07-19T15:59:36.508Z,25.60
2018-07-19T16:02:04.695Z,25.40
2018-07-19T16:04:32.746Z,25.40
2018-07-19T16:07:00.809Z,25.40
2018-07-19T16:09:28.874Z,25.90
2018-07-19T16:11:56.945Z,26.00
2018-07-19T16:14:25.019Z,25.50
2018-07-19T16:16:53.065Z,25.30
2018-07-19T16:19:21.130Z,25.50
2018-07-19T16:21:49.225Z,25.60
2018-07-19T16:24:17.462Z,25.70
2018-07-19T16:26:45.517Z,26.10
2018-07-19T16:29:13.665Z,26.20
2018-07-19T16:31:41.725Z,26.10
2018-07-19T16:34:09.850Z,26.50
2018-07-19T16:36:37.838Z,27.40
2018-07-19T16:39:07.548Z,27.30
2018-07-19T16:41:36.070Z,27.20
2018-07-19T16:44:04.210Z,27.50
2018-07-19T16:46:32.300Z,27.90
2018-07-19T16:49:00.367Z,27.90
2018-07-19T16:51:28.418Z,27.00
2018-07-19T16:53:56.489Z,26.80
2018-07-19T16:56:24.598Z,26.20
2018-07-19T16:58:52.649Z,26.10
2018-07-19T17:01:20.728Z,25.70
2018-07-19T17:03:48.834Z,25.40
2018-07-19T17:06:16.986Z,25.20
2018-07-19T17:08:45.035Z,24.80
2018-07-19T17:11:14.214Z,24.80
2018-07-19T17:13:42.262Z,24.50
2018-07-19T17:16:10.321Z,24.50
2018-07-19T17:18:38.407Z,24.20
2018-07-19T17:21:06.448Z,24.30
2018-07-19T17:23:34.501Z,24.20
2018-07-19T17:26:02.548Z,23.90
2018-07-19T17:28:30.613Z,23.80
2018-07-19T17:30:58.665Z,24.00
2018-07-19T17:33:26.829Z,24.50
2018-07-19T17:35:54.880Z,25.10
2018-07-19T17:38:22.934Z,25.30
2018-07-19T17:40:51.017Z,25.20
2018-07-19T17:43:19.101Z,25.30
2018-07-19T17:45:47.205Z,25.00
2018-07-19T17:48:15.293Z,24.90
2018-07-19T17:50:43.426Z,24.60
2018-07-19T17:55:39.378Z,24.20
2018-07-19T17:58:07.473Z,24.20
2018-07-19T18:00:35.743Z,24.20
2018-07-19T18:03:04.055Z,23.80
2018-07-19T18:05:32.233Z,23.70
2018-07-19T18:08:00.359Z,23.80
2018-07-19T18:10:28.413Z,23.80
2018-07-19T18:12:56.476Z,23.90
2018-07-19T18:17:52.405Z,23.50
2018-07-19T18:20:20.595Z,23.50
2018-07-19T18:22:48.614Z,23.50
2018-07-19T18:25:16.654Z,23.50
2018-07-19T18:27:44.742Z,23.30
2018-07-19T18:30:12.788Z,23.10
2018-07-19T18:32:40.841Z,23.10
2018-07-19T18:35:08.906Z,23.00
2018-07-19T18:37:36.954Z,23.00
2018-07-19T18:40:05.237Z,22.90
2018-07-19T18:42:33.273Z,22.60
2018-07-19T18:45:01.370Z,22.50
2018-07-19T18:47:29.453Z,22.60
2018-07-19T18:52:25.597Z,22.40
2018-07-19T18:54:53.678Z,22.50
2018-07-19T18:57:21.724Z,22.40
2018-07-19T18:59:49.786Z,22.40
2018-07-19T19:04:45.852Z,22.30
2018-07-19T19:07:13.941Z,22.20
2018-07-19T19:09:42.031Z,22.00
2018-07-19T19:12:10.446Z,22.10
2018-07-19T19:14:38.542Z,21.90
2018-07-19T19:17:06.651Z,22.00
2018-07-19T19:19:34.701Z,22.10
2018-07-19T19:22:02.775Z,22.10
2018-07-19T19:24:30.846Z,21.80
2018-07-19T19:26:58.937Z,21.80
2018-07-19T19:29:27.019Z,21.80
2018-07-19T19:31:55.115Z,21.70
2018-07-19T19:34:23.240Z,21.70
2018-07-19T19:36:51.300Z,21.70
2018-07-19T19:39:19.496Z,21.50
2018-07-19T19:41:47.545Z,21.50
2018-07-19T19:44:15.676Z,21.40
2018-07-19T19:46:43.690Z,21.30
2018-07-19T19:49:11.749Z,21.40
2018-07-19T19:56:35.558Z,21.40
2018-07-19T19:59:04.533Z,21.40
2018-07-19T20:01:32.609Z,21.40
2018-07-19T20:04:00.671Z,21.30
2018-07-19T20:06:28.722Z,21.20
2018-07-19T20:08:56.777Z,21.10
2018-07-19T20:11:24.851Z,21.20
2018-07-19T20:13:52.901Z,21.20
2018-07-19T20:16:21.009Z,21.20
2018-07-19T20:18:49.057Z,21.10
2018-07-19T20:21:17.143Z,20.90
2018-07-19T20:23:45.388Z,20.80
2018-07-19T20:26:13.429Z,20.90
2018-07-19T20:31:09.429Z,20.80
2018-07-19T20:33:37.476Z,20.60
2018-07-19T20:38:33.436Z,20.50
2018-07-19T20:41:01.499Z,20.50
2018-07-19T20:43:29.568Z,20.50
2018-07-19T20:45:57.624Z,20.50
2018-07-19T20:48:25.680Z,20.50
2018-07-19T20:50:53.754Z,20.40
2018-07-19T20:53:21.854Z,20.30
2018-07-19T20:55:49.918Z,20.30
2018-07-19T20:58:18.025Z,20.10
2018-07-19T21:03:13.937Z,20.10
2018-07-19T21:05:42.013Z,19.90
2018-07-19T21:08:10.117Z,19.70
2018-07-19T21:10:38.165Z,19.70
2018-07-19T21:13:06.309Z,19.60
2018-07-19T21:15:34.369Z,19.70
2018-07-19T21:18:02.463Z,19.60
2018-07-19T21:20:31.127Z,19.70
2018-07-19T21:22:59.187Z,19.70
2018-07-19T21:25:27.275Z,19.60
2018-07-19T21:27:55.363Z,19.70
2018-07-19T21:30:23.434Z,19.50
2018-07-19T21:32:52.357Z,19.40
2018-07-19T21:35:20.709Z,19.40
2018-07-19T21:37:48.757Z,19.20
2018-07-19T21:40:16.822Z,19.10
2018-07-19T21:42:44.888Z,19.10
2018-07-19T21:45:13.153Z,19.00
2018-07-19T21:47:41.209Z,18.90
2018-07-19T21:50:09.401Z,18.90
2018-07-19T21:52:37.437Z,18.90
2018-07-19T21:55:06.120Z,19.00
2018-07-19T21:57:34.178Z,19.00
2018-07-19T22:00:02.234Z,19.10
2018-07-19T22:02:30.687Z,19.10
2018-07-19T22:04:58.946Z,19.00
2018-07-19T22:07:26.998Z,18.90
2018-07-19T22:09:55.052Z,18.80
2018-07-19T22:12:23.103Z,18.80
2018-07-19T22:14:51.155Z,18.50
2018-07-19T22:17:19.415Z,18.40
2018-07-19T22:19:47.470Z,18.30
2018-07-19T22:22:15.518Z,18.40
2018-07-19T22:27:11.498Z,18.50
2018-07-19T22:29:39.555Z,18.50
2018-07-19T22:32:07.619Z,18.50
2018-07-19T22:34:35.670Z,18.50
2018-07-19T22:37:03.722Z,18.50
2018-07-19T22:39:31.770Z,18.50
2018-07-19T22:41:59.826Z,18.30
2018-07-19T22:44:27.872Z,18.40
2018-07-19T22:46:55.952Z,18.30
2018-07-19T22:49:24.192Z,18.20
2018-07-19T22:51:52.245Z,18.20
2018-07-19T22:54:20.281Z,18.20
2018-07-19T22:56:48.329Z,18.10
2018-07-19T22:59:16.377Z,18.00
2018-07-19T23:01:44.430Z,18.10
2018-07-19T23:04:12.481Z,18.20
2018-07-19T23:09:09.152Z,18.00
2018-07-19T23:11:37.201Z,18.00
2018-07-19T23:14:05.245Z,18.00
2018-07-19T23:16:33.296Z,18.00
2018-07-19T23:19:01.392Z,17.90
2018-07-19T23:21:29.458Z,17.90
2018-07-19T23:23:57.530Z,17.90
2018-07-19T23:26:25.850Z,18.00
2018-07-19T23:28:54.893Z,18.10
2018-07-19T23:31:22.949Z,18.00
2018-07-19T23:33:52.030Z,18.00
2018-07-19T23:39:10.865Z,17.80
2018-07-19T23:41:44.782Z,17.80
2018-07-19T23:44:26.394Z,17.70
2018-07-19T23:46:58.838Z,17.80
2018-07-19T23:49:26.890Z,17.90
2018-07-19T23:51:55.829Z,17.70
2018-07-19T23:56:51.821Z,17.80
2018-07-19T23:59:19.877Z,17.70
